sensor_id;sensor_type;location;lat;lon;timestamp;pressure;altitude;pressure_sealevel;temperature;humidity
10466;BME280;5280;42.600;23.556;2023-04-28T00:01:14;93607.78;;;6.64;61.10
10466;BME280;5280;42.600;23.556;2023-04-28T00:03:40;93595.41;;;6.52;61.76
10466;BME280;5280;42.600;23.556;2023-04-28T00:06:08;93603.38;;;6.50;61.04
10466;BME280;5280;42.600;23.556;2023-04-28T00:08:36;93609.41;;;6.52;61.72
10466;BME280;5280;42.600;23.556;2023-04-28T00:11:02;93602.88;;;6.43;61.22
10466;BME280;5280;42.600;23.556;2023-04-28T00:13:29;93601.47;;;6.38;60.85
10466;BME280;5280;42.600;23.556;2023-04-28T00:15:57;93611.63;;;6.44;61.04
10466;BME280;5280;42.600;23.556;2023-04-28T00:18:25;93609.41;;;6.52;60.97
10466;BME280;5280;42.600;23.556;2023-04-28T00:20:53;93592.59;;;6.40;61.08
10466;BME280;5280;42.600;23.556;2023-04-28T00:23:20;93591.94;;;6.37;61.86
10466;BME280;5280;42.600;23.556;2023-04-28T00:25:50;93608.34;;;6.40;61.50
10466;BME280;5280;42.600;23.556;2023-04-28T00:28:17;93584.97;;;6.22;62.36
10466;BME280;5280;42.600;23.556;2023-04-28T00:30:43;93569.16;;;5.93;62.31
10466;BME280;5280;42.600;23.556;2023-04-28T00:33:12;93557.06;;;5.91;61.53
10466;BME280;5280;42.600;23.556;2023-04-28T00:35:39;93594.22;;;6.13;61.25
10466;BME280;5280;42.600;23.556;2023-04-28T00:38:06;93613.84;;;6.22;61.79
10466;BME280;5280;42.600;23.556;2023-04-28T00:40:33;93580.41;;;5.95;61.54
10466;BME280;5280;42.600;23.556;2023-04-28T00:43:01;93622.78;;;6.18;62.93
10466;BME280;5280;42.600;23.556;2023-04-28T00:45:28;93620.28;;;6.16;61.77
10466;BME280;5280;42.600;23.556;2023-04-28T00:47:55;93596.66;;;6.02;62.41
10466;BME280;5280;42.600;23.556;2023-04-28T00:50:24;93575.66;;;5.86;61.56
10466;BME280;5280;42.600;23.556;2023-04-28T00:52:51;93548.72;;;5.69;61.54
10466;BME280;5280;42.600;23.556;2023-04-28T00:55:18;93623.19;;;6.12;62.61
10466;BME280;5280;42.600;23.556;2023-04-28T00:57:46;93601.59;;;5.92;61.94
10466;BME280;5280;42.600;23.556;2023-04-28T01:00:14;93601.81;;;5.88;62.42
10466;BME280;5280;42.600;23.556;2023-04-28T01:02:41;93612.38;;;5.86;64.22
10466;BME280;5280;42.600;23.556;2023-04-28T01:05:08;93614.44;;;5.81;64.17
10466;BME280;5280;42.600;23.556;2023-04-28T01:07:37;93639.69;;;5.98;62.70
10466;BME280;5280;42.600;23.556;2023-04-28T01:10:05;93631.94;;;5.81;65.96
10466;BME280;5280;42.600;23.556;2023-04-28T01:12:32;93632.59;;;5.84;66.11
10466;BME280;5280;42.600;23.556;2023-04-28T01:14:59;93628.66;;;5.77;65.76
10466;BME280;5280;42.600;23.556;2023-04-28T01:17:28;93642.00;;;5.88;66.50
10466;BME280;5280;42.600;23.556;2023-04-28T01:19:55;93623.75;;;5.71;66.16
10466;BME280;5280;42.600;23.556;2023-04-28T01:22:22;93628.22;;;5.69;65.53
10466;BME280;5280;42.600;23.556;2023-04-28T01:24:50;93586.84;;;5.29;65.99
10466;BME280;5280;42.600;23.556;2023-04-28T01:27:17;93618.25;;;5.60;66.53
10466;BME280;5280;42.600;23.556;2023-04-28T01:29:43;93550.28;;;5.11;66.96
10466;BME280;5280;42.600;23.556;2023-04-28T01:32:10;93603.00;;;5.37;67.61
10466;BME280;5280;42.600;23.556;2023-04-28T01:34:37;93620.63;;;5.49;67.05
10466;BME280;5280;42.600;23.556;2023-04-28T01:37:04;93637.22;;;5.49;67.61
10466;BME280;5280;42.600;23.556;2023-04-28T01:39:30;93634.84;;;5.45;66.26
10466;BME280;5280;42.600;23.556;2023-04-28T01:41:58;93632.34;;;5.28;66.19
10466;BME280;5280;42.600;23.556;2023-04-28T01:44:26;93614.47;;;5.18;66.43
10466;BME280;5280;42.600;23.556;2023-04-28T01:46:53;93638.31;;;5.14;67.00
10466;BME280;5280;42.600;23.556;2023-04-28T01:49:20;93631.28;;;5.14;66.25
10466;BME280;5280;42.600;23.556;2023-04-28T01:51:47;93634.34;;;5.07;67.14
10466;BME280;5280;42.600;23.556;2023-04-28T01:54:14;93604.31;;;4.81;68.78
10466;BME280;5280;42.600;23.556;2023-04-28T01:56:40;93628.75;;;4.97;67.50
10466;BME280;5280;42.600;23.556;2023-04-28T01:59:09;93639.66;;;5.05;66.06
10466;BME280;5280;42.600;23.556;2023-04-28T02:01:35;93643.63;;;4.97;67.07
10466;BME280;5280;42.600;23.556;2023-04-28T02:04:02;93610.47;;;4.80;64.88
10466;BME280;5280;42.600;23.556;2023-04-28T02:06:29;93636.44;;;5.00;64.71
10466;BME280;5280;42.600;23.556;2023-04-28T02:08:56;93631.69;;;4.91;65.56
10466;BME280;5280;42.600;23.556;2023-04-28T02:11:23;93651.31;;;5.00;66.96
10466;BME280;5280;42.600;23.556;2023-04-28T02:13:53;93642.69;;;4.98;66.75
10466;BME280;5280;42.600;23.556;2023-04-28T02:16:21;93602.03;;;4.75;66.59
10466;BME280;5280;42.600;23.556;2023-04-28T02:18:48;93650.13;;;5.05;65.33
10466;BME280;5280;42.600;23.556;2023-04-28T02:21:15;93642.59;;;4.99;67.00
10466;BME280;5280;42.600;23.556;2023-04-28T02:23:42;93648.59;;;5.01;66.22
10466;BME280;5280;42.600;23.556;2023-04-28T02:26:09;93605.97;;;4.66;64.40
10466;BME280;5280;42.600;23.556;2023-04-28T02:28:36;93639.13;;;4.83;66.47
10466;BME280;5280;42.600;23.556;2023-04-28T02:31:04;93663.13;;;4.91;66.11
10466;BME280;5280;42.600;23.556;2023-04-28T02:33:33;93655.75;;;4.82;65.40
10466;BME280;5280;42.600;23.556;2023-04-28T02:36:00;93664.47;;;4.83;67.34
10466;BME280;5280;42.600;23.556;2023-04-28T02:38:27;93667.16;;;4.81;66.11
10466;BME280;5280;42.600;23.556;2023-04-28T02:40:57;93656.69;;;4.81;66.00
10466;BME280;5280;42.600;23.556;2023-04-28T02:43:25;93645.50;;;4.62;67.11
10466;BME280;5280;42.600;23.556;2023-04-28T02:45:52;93661.00;;;4.82;68.89
10466;BME280;5280;42.600;23.556;2023-04-28T02:48:19;93665.63;;;4.77;67.20
10466;BME280;5280;42.600;23.556;2023-04-28T02:50:47;93662.41;;;4.72;66.72
10466;BME280;5280;42.600;23.556;2023-04-28T02:53:14;93648.53;;;4.70;66.85
10466;BME280;5280;42.600;23.556;2023-04-28T02:55:41;93656.63;;;4.65;66.51
10466;BME280;5280;42.600;23.556;2023-04-28T02:58:07;93673.47;;;4.77;66.46
10466;BME280;5280;42.600;23.556;2023-04-28T03:00:34;93665.78;;;4.74;67.18
10466;BME280;5280;42.600;23.556;2023-04-28T03:03:01;93676.84;;;4.79;68.33
10466;BME280;5280;42.600;23.556;2023-04-28T03:05:28;93607.97;;;4.28;68.92
10466;BME280;5280;42.600;23.556;2023-04-28T03:07:56;93671.41;;;4.66;71.87
10466;BME280;5280;42.600;23.556;2023-04-28T03:10:23;93649.50;;;4.52;70.18
10466;BME280;5280;42.600;23.556;2023-04-28T03:12:50;93630.91;;;4.41;67.92
10466;BME280;5280;42.600;23.556;2023-04-28T03:15:17;93678.25;;;4.69;69.44
10466;BME280;5280;42.600;23.556;2023-04-28T03:17:44;93686.22;;;4.67;68.24
10466;BME280;5280;42.600;23.556;2023-04-28T03:20:11;93687.50;;;4.59;67.98
10466;BME280;5280;42.600;23.556;2023-04-28T03:22:38;93647.06;;;4.31;69.73
10466;BME280;5280;42.600;23.556;2023-04-28T03:25:07;93693.59;;;4.59;69.06
10466;BME280;5280;42.600;23.556;2023-04-28T03:27:34;93698.31;;;4.53;70.88
10466;BME280;5280;42.600;23.556;2023-04-28T03:30:00;93687.69;;;4.56;70.76
10466;BME280;5280;42.600;23.556;2023-04-28T03:32:28;93665.81;;;4.40;69.34
10466;BME280;5280;42.600;23.556;2023-04-28T03:34:55;93678.59;;;4.46;69.25
10466;BME280;5280;42.600;23.556;2023-04-28T03:37:21;93708.63;;;4.56;68.83
10466;BME280;5280;42.600;23.556;2023-04-28T03:39:48;93714.63;;;4.58;68.03
10466;BME280;5280;42.600;23.556;2023-04-28T03:42:16;93712.69;;;4.61;68.45
10466;BME280;5280;42.600;23.556;2023-04-28T03:44:43;93708.63;;;4.56;68.17
10466;BME280;5280;42.600;23.556;2023-04-28T03:47:11;93725.00;;;4.59;69.41
10466;BME280;5280;42.600;23.556;2023-04-28T03:49:38;93723.41;;;4.57;69.09
10466;BME280;5280;42.600;23.556;2023-04-28T03:52:04;93689.78;;;4.32;68.01
10466;BME280;5280;42.600;23.556;2023-04-28T03:54:31;93737.84;;;4.64;68.23
10466;BME280;5280;42.600;23.556;2023-04-28T03:56:58;93717.25;;;4.58;68.83
10466;BME280;5280;42.600;23.556;2023-04-28T03:59:27;93704.16;;;4.41;68.48
10466;BME280;5280;42.600;23.556;2023-04-28T04:01:54;93748.25;;;4.65;67.69
10466;BME280;5280;42.600;23.556;2023-04-28T04:04:21;93703.38;;;4.39;67.90
10466;BME280;5280;42.600;23.556;2023-04-28T04:06:48;93753.19;;;4.71;68.06
10466;BME280;5280;42.600;23.556;2023-04-28T04:09:15;93749.53;;;4.74;67.57
10466;BME280;5280;42.600;23.556;2023-04-28T04:11:42;93757.16;;;4.78;67.90
10466;BME280;5280;42.600;23.556;2023-04-28T04:14:09;93772.19;;;4.92;66.63
10466;BME280;5280;42.600;23.556;2023-04-28T04:16:37;93765.56;;;4.85;67.23
10466;BME280;5280;42.600;23.556;2023-04-28T04:19:04;93763.84;;;4.84;69.03
10466;BME280;5280;42.600;23.556;2023-04-28T04:21:31;93765.84;;;4.96;69.87
10466;BME280;5280;42.600;23.556;2023-04-28T04:23:58;93767.22;;;5.03;68.50
10466;BME280;5280;42.600;23.556;2023-04-28T04:26:24;93772.31;;;5.06;66.28
10466;BME280;5280;42.600;23.556;2023-04-28T04:28:51;93772.00;;;5.12;66.18
10466;BME280;5280;42.600;23.556;2023-04-28T04:31:18;93773.22;;;5.23;65.50
10466;BME280;5280;42.600;23.556;2023-04-28T04:33:48;93763.94;;;5.33;63.96
10466;BME280;5280;42.600;23.556;2023-04-28T04:36:14;93771.81;;;5.48;63.29
10466;BME280;5280;42.600;23.556;2023-04-28T04:38:41;93765.31;;;5.55;62.69
10466;BME280;5280;42.600;23.556;2023-04-28T04:41:08;93763.22;;;5.62;63.48
10466;BME280;5280;42.600;23.556;2023-04-28T04:43:35;93778.38;;;5.73;63.45
10466;BME280;5280;42.600;23.556;2023-04-28T04:46:01;93783.63;;;5.88;61.49
10466;BME280;5280;42.600;23.556;2023-04-28T04:48:28;93768.22;;;5.82;61.79
10466;BME280;5280;42.600;23.556;2023-04-28T04:50:57;93743.25;;;5.75;60.89
10466;BME280;5280;42.600;23.556;2023-04-28T04:53:23;93782.47;;;6.10;61.22
10466;BME280;5280;42.600;23.556;2023-04-28T04:55:50;93716.63;;;5.67;59.27
10466;BME280;5280;42.600;23.556;2023-04-28T04:58:17;93758.84;;;6.10;58.66
10466;BME280;5280;42.600;23.556;2023-04-28T05:00:44;93781.00;;;6.35;59.98
10466;BME280;5280;42.600;23.556;2023-04-28T05:03:11;93782.50;;;6.39;60.84
10466;BME280;5280;42.600;23.556;2023-04-28T05:05:38;93773.44;;;6.45;57.77
10466;BME280;5280;42.600;23.556;2023-04-28T05:08:06;93788.44;;;6.43;59.32
10466;BME280;5280;42.600;23.556;2023-04-28T05:10:33;93776.13;;;6.59;58.96
10466;BME280;5280;42.600;23.556;2023-04-28T05:13:00;93786.84;;;6.70;58.64
10466;BME280;5280;42.600;23.556;2023-04-28T05:15:27;93775.41;;;6.71;56.87
10466;BME280;5280;42.600;23.556;2023-04-28T05:17:54;93780.88;;;6.82;58.40
10466;BME280;5280;42.600;23.556;2023-04-28T05:20:21;93782.22;;;6.89;56.49
10466;BME280;5280;42.600;23.556;2023-04-28T05:22:48;93780.53;;;7.03;56.38
10466;BME280;5280;42.600;23.556;2023-04-28T05:25:17;93778.50;;;7.08;57.00
10466;BME280;5280;42.600;23.556;2023-04-28T05:27:43;93786.59;;;7.19;56.40
10466;BME280;5280;42.600;23.556;2023-04-28T05:30:11;93784.38;;;7.27;57.25
10466;BME280;5280;42.600;23.556;2023-04-28T05:32:40;93787.16;;;7.38;58.97
10466;BME280;5280;42.600;23.556;2023-04-28T05:35:08;93778.81;;;7.46;56.46
10466;BME280;5280;42.600;23.556;2023-04-28T05:37:35;93782.31;;;7.60;55.51
10466;BME280;5280;42.600;23.556;2023-04-28T05:40:03;93788.31;;;7.76;54.64
10466;BME280;5280;42.600;23.556;2023-04-28T05:42:31;93788.31;;;7.76;54.59
10466;BME280;5280;42.600;23.556;2023-04-28T05:44:58;93787.53;;;7.89;53.56
10466;BME280;5280;42.600;23.556;2023-04-28T05:47:25;93786.03;;;7.85;55.35
10466;BME280;5280;42.600;23.556;2023-04-28T05:49:52;93789.44;;;7.87;55.77
10466;BME280;5280;42.600;23.556;2023-04-28T05:52:18;93792.91;;;8.01;56.09
10466;BME280;5280;42.600;23.556;2023-04-28T05:54:45;93771.00;;;8.01;55.48
10466;BME280;5280;42.600;23.556;2023-04-28T05:57:14;93792.78;;;8.31;52.06
10466;BME280;5280;42.600;23.556;2023-04-28T05:59:43;93783.31;;;8.27;50.75
10466;BME280;5280;42.600;23.556;2023-04-28T06:02:10;93751.38;;;8.19;53.93
10466;BME280;5280;42.600;23.556;2023-04-28T06:04:37;93789.53;;;8.40;53.91
10466;BME280;5280;42.600;23.556;2023-04-28T06:07:04;93759.81;;;8.38;52.15
10466;BME280;5280;42.600;23.556;2023-04-28T06:09:30;93793.66;;;8.71;52.28
10466;BME280;5280;42.600;23.556;2023-04-28T06:11:57;93798.34;;;8.80;50.17
10466;BME280;5280;42.600;23.556;2023-04-28T06:14:24;93792.69;;;8.99;48.96
10466;BME280;5280;42.600;23.556;2023-04-28T06:16:52;93720.38;;;8.63;49.56
10466;BME280;5280;42.600;23.556;2023-04-28T06:19:19;93804.75;;;9.16;48.64
10466;BME280;5280;42.600;23.556;2023-04-28T06:21:46;93785.94;;;9.07;48.02
10466;BME280;5280;42.600;23.556;2023-04-28T06:24:14;93796.00;;;9.28;49.76
10466;BME280;5280;42.600;23.556;2023-04-28T06:26:41;93799.19;;;9.45;48.50
10466;BME280;5280;42.600;23.556;2023-04-28T06:29:08;93790.94;;;9.37;48.75
10466;BME280;5280;42.600;23.556;2023-04-28T06:31:34;93796.63;;;9.57;49.13
10466;BME280;5280;42.600;23.556;2023-04-28T06:34:02;93804.91;;;9.65;48.68
10466;BME280;5280;42.600;23.556;2023-04-28T06:36:29;93806.47;;;9.80;47.90
10466;BME280;5280;42.600;23.556;2023-04-28T06:38:57;93807.84;;;9.85;45.62
10466;BME280;5280;42.600;23.556;2023-04-28T06:41:24;93806.88;;;9.74;47.47
10466;BME280;5280;42.600;23.556;2023-04-28T06:43:50;93798.44;;;9.81;45.95
10466;BME280;5280;42.600;23.556;2023-04-28T06:46:17;93801.16;;;10.05;46.88
10466;BME280;5280;42.600;23.556;2023-04-28T06:48:44;93788.28;;;10.01;47.64
10466;BME280;5280;42.600;23.556;2023-04-28T06:51:13;93799.88;;;10.23;44.00
10466;BME280;5280;42.600;23.556;2023-04-28T06:53:40;93785.31;;;10.05;45.67
10466;BME280;5280;42.600;23.556;2023-04-28T06:56:06;93794.38;;;10.26;46.00
10466;BME280;5280;42.600;23.556;2023-04-28T06:58:33;93795.97;;;10.29;47.09
10466;BME280;5280;42.600;23.556;2023-04-28T07:01:01;93791.59;;;10.41;46.51
10466;BME280;5280;42.600;23.556;2023-04-28T07:03:30;93771.75;;;10.35;44.56
10466;BME280;5280;42.600;23.556;2023-04-28T07:05:56;93796.22;;;10.50;44.35
10466;BME280;5280;42.600;23.556;2023-04-28T07:08:25;93746.63;;;10.29;44.66
10466;BME280;5280;42.600;23.556;2023-04-28T07:10:54;93791.78;;;10.50;44.09
10466;BME280;5280;42.600;23.556;2023-04-28T07:13:20;93777.41;;;10.42;46.30
10466;BME280;5280;42.600;23.556;2023-04-28T07:15:48;93802.56;;;10.71;47.86
10466;BME280;5280;42.600;23.556;2023-04-28T07:18:14;93753.38;;;10.33;43.38
10466;BME280;5280;42.600;23.556;2023-04-28T07:20:41;93792.28;;;10.79;45.45
10466;BME280;5280;42.600;23.556;2023-04-28T07:23:08;93794.25;;;10.88;45.65
10466;BME280;5280;42.600;23.556;2023-04-28T07:25:37;93775.31;;;10.94;45.02
10466;BME280;5280;42.600;23.556;2023-04-28T07:28:05;93751.00;;;10.89;44.20
10466;BME280;5280;42.600;23.556;2023-04-28T07:30:33;93785.50;;;11.22;43.69
10466;BME280;5280;42.600;23.556;2023-04-28T07:33:00;93794.16;;;11.25;43.58
10466;BME280;5280;42.600;23.556;2023-04-28T07:35:27;93765.28;;;11.10;43.54
10466;BME280;5280;42.600;23.556;2023-04-28T07:37:57;93802.59;;;11.30;45.34
10466;BME280;5280;42.600;23.556;2023-04-28T07:40:24;93773.63;;;11.28;44.16
10466;BME280;5280;42.600;23.556;2023-04-28T07:42:52;93785.31;;;11.48;44.72
10466;BME280;5280;42.600;23.556;2023-04-28T07:45:20;93781.63;;;11.61;42.90
10466;BME280;5280;42.600;23.556;2023-04-28T07:47:46;93781.03;;;11.58;42.75
10466;BME280;5280;42.600;23.556;2023-04-28T07:50:13;93793.78;;;11.64;44.10
10466;BME280;5280;42.600;23.556;2023-04-28T07:52:41;93734.16;;;11.36;43.11
10466;BME280;5280;42.600;23.556;2023-04-28T07:55:08;93781.81;;;11.82;42.61
10466;BME280;5280;42.600;23.556;2023-04-28T07:57:34;93795.06;;;12.04;44.11
10466;BME280;5280;42.600;23.556;2023-04-28T08:00:04;93787.34;;;12.13;43.03
10466;BME280;5280;42.600;23.556;2023-04-28T08:02:31;93770.38;;;12.15;43.06
10466;BME280;5280;42.600;23.556;2023-04-28T08:04:58;93777.72;;;12.23;42.77
10466;BME280;5280;42.600;23.556;2023-04-28T08:07:25;93788.16;;;12.35;43.54
10466;BME280;5280;42.600;23.556;2023-04-28T08:09:52;93791.56;;;12.37;42.44
10466;BME280;5280;42.600;23.556;2023-04-28T08:12:19;93759.75;;;12.37;42.64
10466;BME280;5280;42.600;23.556;2023-04-28T08:14:46;93782.34;;;12.64;42.01
10466;BME280;5280;42.600;23.556;2023-04-28T08:17:17;93786.66;;;12.76;40.69
10466;BME280;5280;42.600;23.556;2023-04-28T08:19:44;93784.44;;;12.60;41.79
10466;BME280;5280;42.600;23.556;2023-04-28T08:22:12;93724.22;;;12.40;41.07
10466;BME280;5280;42.600;23.556;2023-04-28T08:24:38;93766.53;;;12.73;41.02
10466;BME280;5280;42.600;23.556;2023-04-28T08:27:05;93765.53;;;12.85;41.76
10466;BME280;5280;42.600;23.556;2023-04-28T08:29:32;93758.38;;;12.97;41.96
10466;BME280;5280;42.600;23.556;2023-04-28T08:32:00;93762.91;;;13.06;40.86
10466;BME280;5280;42.600;23.556;2023-04-28T08:34:28;93768.22;;;13.17;40.90
10466;BME280;5280;42.600;23.556;2023-04-28T08:36:55;93751.34;;;13.18;40.83
10466;BME280;5280;42.600;23.556;2023-04-28T08:39:22;93770.25;;;13.46;40.39
10466;BME280;5280;42.600;23.556;2023-04-28T08:41:51;93764.25;;;13.64;40.93
10466;BME280;5280;42.600;23.556;2023-04-28T08:44:18;93761.75;;;13.72;38.32
10466;BME280;5280;42.600;23.556;2023-04-28T08:46:46;93762.94;;;13.79;37.65
10466;BME280;5280;42.600;23.556;2023-04-28T08:49:16;93728.25;;;13.60;38.87
10466;BME280;5280;42.600;23.556;2023-04-28T08:51:49;93755.03;;;13.68;39.02
10466;BME280;5280;42.600;23.556;2023-04-28T08:54:16;93753.53;;;13.75;39.31
10466;BME280;5280;42.600;23.556;2023-04-28T08:56:45;93748.94;;;13.77;40.42
10466;BME280;5280;42.600;23.556;2023-04-28T08:59:12;93749.94;;;13.86;38.36
10466;BME280;5280;42.600;23.556;2023-04-28T09:01:38;93723.16;;;13.68;40.13
10466;BME280;5280;42.600;23.556;2023-04-28T09:04:05;93749.75;;;13.99;37.57
10466;BME280;5280;42.600;23.556;2023-04-28T09:06:34;93730.94;;;13.91;37.28
10466;BME280;5280;42.600;23.556;2023-04-28T09:09:25;93740.66;;;14.01;38.49
10466;BME280;5280;42.600;23.556;2023-04-28T09:11:54;93727.69;;;14.08;37.13
10466;BME280;5280;42.600;23.556;2023-04-28T09:14:22;93716.59;;;14.03;36.93
10466;BME280;5280;42.600;23.556;2023-04-28T09:16:49;93737.78;;;14.14;37.09
10466;BME280;5280;42.600;23.556;2023-04-28T09:19:17;93738.47;;;14.16;36.81
10466;BME280;5280;42.600;23.556;2023-04-28T09:21:48;93747.69;;;14.12;36.93
10466;BME280;5280;42.600;23.556;2023-04-28T09:24:30;93739.06;;;14.19;38.39
10466;BME280;5280;42.600;23.556;2023-04-28T09:26:57;93728.03;;;14.24;37.42
10466;BME280;5280;42.600;23.556;2023-04-28T09:29:25;93719.22;;;14.33;38.39
10466;BME280;5280;42.600;23.556;2023-04-28T09:31:52;93729.22;;;14.50;37.94
10466;BME280;5280;42.600;23.556;2023-04-28T09:34:19;93730.78;;;14.53;37.10
10466;BME280;5280;42.600;23.556;2023-04-28T09:36:46;93688.00;;;14.26;37.42
10466;BME280;5280;42.600;23.556;2023-04-28T09:39:13;93734.22;;;14.74;35.73
10466;BME280;5280;42.600;23.556;2023-04-28T09:41:42;93720.47;;;14.79;37.44
10466;BME280;5280;42.600;23.556;2023-04-28T09:44:11;93694.69;;;14.70;35.10
10466;BME280;5280;42.600;23.556;2023-04-28T09:46:38;93675.63;;;14.64;37.82
10466;BME280;5280;42.600;23.556;2023-04-28T09:49:05;93714.47;;;14.96;35.73
10466;BME280;5280;42.600;23.556;2023-04-28T09:51:31;93704.53;;;14.88;35.85
10466;BME280;5280;42.600;23.556;2023-04-28T09:53:59;93701.16;;;15.05;33.85
10466;BME280;5280;42.600;23.556;2023-04-28T09:56:28;93695.28;;;15.12;36.34
10466;BME280;5280;42.600;23.556;2023-04-28T09:58:58;93692.91;;;15.18;37.10
10466;BME280;5280;42.600;23.556;2023-04-28T10:01:26;93642.03;;;15.02;33.65
10466;BME280;5280;42.600;23.556;2023-04-28T10:03:53;93640.22;;;15.12;36.02
10466;BME280;5280;42.600;23.556;2023-04-28T10:06:22;93664.69;;;15.25;34.70
10466;BME280;5280;42.600;23.556;2023-04-28T10:08:52;93685.84;;;15.46;34.91
10466;BME280;5280;42.600;23.556;2023-04-28T10:11:18;93674.63;;;15.62;34.90
10466;BME280;5280;42.600;23.556;2023-04-28T10:13:47;93673.31;;;15.75;34.35
10466;BME280;5280;42.600;23.556;2023-04-28T10:16:18;93675.00;;;15.76;36.29
10466;BME280;5280;42.600;23.556;2023-04-28T10:18:45;93673.00;;;15.88;32.16
10466;BME280;5280;42.600;23.556;2023-04-28T10:21:15;93667.78;;;15.96;33.99
10466;BME280;5280;42.600;23.556;2023-04-28T10:24:14;93648.88;;;15.80;34.20
10466;BME280;5280;42.600;23.556;2023-04-28T10:27:05;93668.25;;;15.82;34.10
10466;BME280;5280;42.600;23.556;2023-04-28T10:29:33;93671.38;;;16.05;32.41
10466;BME280;5280;42.600;23.556;2023-04-28T10:32:22;93664.56;;;15.92;31.15
10466;BME280;5280;42.600;23.556;2023-04-28T10:34:50;93648.97;;;15.98;32.33
10466;BME280;5280;42.600;23.556;2023-04-28T10:37:17;93661.28;;;16.08;30.05
10466;BME280;5280;42.600;23.556;2023-04-28T10:40:32;93665.31;;;16.12;30.27
10466;BME280;5280;42.600;23.556;2023-04-28T10:42:59;93650.88;;;16.05;31.00
10466;BME280;5280;42.600;23.556;2023-04-28T10:46:02;93659.50;;;16.26;31.18
10466;BME280;5280;42.600;23.556;2023-04-28T10:49:05;93649.16;;;16.41;30.57
10466;BME280;5280;42.600;23.556;2023-04-28T10:51:33;93645.25;;;16.35;30.77
10466;BME280;5280;42.600;23.556;2023-04-28T10:54:07;93639.84;;;16.27;30.80
10466;BME280;5280;42.600;23.556;2023-04-28T10:56:34;93648.75;;;16.36;31.09
10466;BME280;5280;42.600;23.556;2023-04-28T10:59:24;93636.03;;;16.30;30.69
10466;BME280;5280;42.600;23.556;2023-04-28T11:01:52;93632.06;;;16.34;30.69
10466;BME280;5280;42.600;23.556;2023-04-28T11:04:20;93634.13;;;16.40;30.80
10466;BME280;5280;42.600;23.556;2023-04-28T11:07:09;93631.94;;;16.08;30.97
10466;BME280;5280;42.600;23.556;2023-04-28T11:09:47;93630.44;;;15.96;31.42
10466;BME280;5280;42.600;23.556;2023-04-28T11:12:15;93633.06;;;16.06;29.91
10466;BME280;5280;42.600;23.556;2023-04-28T11:14:44;93621.75;;;15.94;28.56
10466;BME280;5280;42.600;23.556;2023-04-28T11:17:10;93619.78;;;15.69;28.95
10466;BME280;5280;42.600;23.556;2023-04-28T11:19:43;93629.25;;;15.81;30.10
10466;BME280;5280;42.600;23.556;2023-04-28T11:22:14;93621.44;;;15.70;29.37
10466;BME280;5280;42.600;23.556;2023-04-28T11:24:53;93624.94;;;15.70;31.15
10466;BME280;5280;42.600;23.556;2023-04-28T11:27:25;93565.84;;;15.47;32.16
10466;BME280;5280;42.600;23.556;2023-04-28T11:29:52;93624.00;;;15.99;33.83
10466;BME280;5280;42.600;23.556;2023-04-28T11:32:25;93621.56;;;16.05;31.07
10466;BME280;5280;42.600;23.556;2023-04-28T11:34:54;93619.16;;;16.12;31.45
10466;BME280;5280;42.600;23.556;2023-04-28T11:37:21;93612.00;;;16.12;31.13
10466;BME280;5280;42.600;23.556;2023-04-28T11:39:48;93617.25;;;16.22;30.30
10466;BME280;5280;42.600;23.556;2023-04-28T11:42:15;93613.31;;;16.26;31.71
10466;BME280;5280;42.600;23.556;2023-04-28T11:44:49;93586.78;;;16.24;29.68
10466;BME280;5280;42.600;23.556;2023-04-28T11:47:27;93578.91;;;16.05;30.87
10466;BME280;5280;42.600;23.556;2023-04-28T11:49:57;93601.72;;;16.17;31.05
10466;BME280;5280;42.600;23.556;2023-04-28T11:52:24;93553.16;;;15.96;31.09
10466;BME280;5280;42.600;23.556;2023-04-28T11:54:52;93581.44;;;16.24;32.06
10466;BME280;5280;42.600;23.556;2023-04-28T11:57:21;93589.09;;;16.37;31.91
10466;BME280;5280;42.600;23.556;2023-04-28T11:59:48;93587.78;;;16.23;31.43
10466;BME280;5280;42.600;23.556;2023-04-28T12:02:23;93588.00;;;16.30;30.63
10466;BME280;5280;42.600;23.556;2023-04-28T12:04:50;93572.38;;;16.35;30.46
10466;BME280;5280;42.600;23.556;2023-04-28T12:07:18;93582.31;;;16.43;28.85
10466;BME280;5280;42.600;23.556;2023-04-28T12:09:47;93588.03;;;16.48;28.53
10466;BME280;5280;42.600;23.556;2023-04-28T12:12:26;93577.72;;;16.62;29.79
10466;BME280;5280;42.600;23.556;2023-04-28T12:14:55;93573.13;;;16.72;27.76
10466;BME280;5280;42.600;23.556;2023-04-28T12:17:23;93564.94;;;16.74;28.99
10466;BME280;5280;42.600;23.556;2023-04-28T12:19:51;93561.16;;;16.76;28.78
10466;BME280;5280;42.600;23.556;2023-04-28T12:22:19;93519.28;;;16.59;28.65
10466;BME280;5280;42.600;23.556;2023-04-28T12:24:46;93562.50;;;16.98;29.57
10466;BME280;5280;42.600;23.556;2023-04-28T12:27:27;93557.06;;;17.08;28.42
10466;BME280;5280;42.600;23.556;2023-04-28T12:29:55;93536.25;;;17.19;30.15
10466;BME280;5280;42.600;23.556;2023-04-28T12:32:36;93549.50;;;17.29;30.12
10466;BME280;5280;42.600;23.556;2023-04-28T12:35:05;93540.13;;;17.25;29.66
10466;BME280;5280;42.600;23.556;2023-04-28T12:37:34;93549.56;;;17.37;30.16
10466;BME280;5280;42.600;23.556;2023-04-28T12:40:03;93535.41;;;17.45;30.38
10466;BME280;5280;42.600;23.556;2023-04-28T12:42:30;93533.47;;;17.55;27.52
10466;BME280;5280;42.600;23.556;2023-04-28T12:44:59;93544.41;;;17.61;27.06
10466;BME280;5280;42.600;23.556;2023-04-28T12:47:26;93533.84;;;17.60;28.02
10466;BME280;5280;42.600;23.556;2023-04-28T12:49:53;93519.91;;;17.48;28.09
10466;BME280;5280;42.600;23.556;2023-04-28T12:52:20;93536.88;;;17.65;29.12
10466;BME280;5280;42.600;23.556;2023-04-28T12:54:49;93495.44;;;17.61;29.03
10466;BME280;5280;42.600;23.556;2023-04-28T12:57:16;93517.06;;;17.84;29.36
10466;BME280;5280;42.600;23.556;2023-04-28T12:59:44;93517.28;;;17.90;28.51
10466;BME280;5280;42.600;23.556;2023-04-28T13:02:12;93525.81;;;17.94;27.29
10466;BME280;5280;42.600;23.556;2023-04-28T13:04:39;93532.03;;;18.02;27.42
10466;BME280;5280;42.600;23.556;2023-04-28T13:07:11;93523.31;;;17.92;27.45
10466;BME280;5280;42.600;23.556;2023-04-28T13:09:38;93507.19;;;17.76;27.27
10466;BME280;5280;42.600;23.556;2023-04-28T13:12:08;93521.19;;;17.70;29.25